Forside
METAR-TAF:

METAR-TAF

Lufthavne :

Salt Lake City International Airport

Salt Lake City, Utah, USA

Breddekreds: 40-46-41N, længdekreds: 111-58-10W, højde: 1288 m

Aktuelle vejr

Denne rapport blev lavet for 30 minutter siden, kl. 15:54 UTC
Vind 7 kt fra sydøst
Temperatur 2°C
Fugtighed 47%
Tryk 1034 hPa
Sigt: 16.1 km
Nogle få skyer i en højde af 11000 ft
Spredte skyer i en højde af 20000 ft

METAR: KSLC 141554Z 13007KT 10SM FEW110 SCT200 02/M08 A3054 RMK AO2 SLP355 T00171078

Tid: 09:24 (16:24 UTC)

Vejrudsigter

Denne rapport blev lavet for 51 minutter siden, kl. 15:33 UTC
Foreløbig gælder fra 14 på 16 UTC til 15 på 18 UTC
Vind 5 kt fra sydsydøst
Sigt: 10 km
skyfri
Fra 14 på 1800 UTC
Vind 6 kt fra nordnordvest
Sigt: 10 km
Spredte skyer i en højde af 18000 ft
Fra 15 på 0300 UTC
Vind 5 kt fra sydsydøst
Sigt: 10 km
Spredte skyer i en højde af 18000 ft

TAF: KSLC 141533Z 1416/1518 15005KT P6SM SKC FM141800 33006KT P6SM SCT180 FM150300 15005KT P6SM SCT180

Vejrobservationer og prognoser fra mere end 4000 lufthavne (METAR og TAF).

De gule og røde prikker repræsenterer de meteorologiske stationer.

Flyt musen over at se navnet på stationen.

Så klik over at se vejr observationer og prognoser.

At skifte det kort: Klik på de grønne knapper med et sort kors for at zoome ind; på den grønne knap med en bindestreg for at zoome ud; eller på de grønne pile for tilstødende kort.


METAR-TAF: